createdAt,value
2018-01-27T00:00:40.418Z,13.10
2018-01-27T00:03:08.123Z,11.70
2018-01-27T00:05:35.879Z,14.00
2018-01-27T00:08:03.638Z,11.97
2018-01-27T00:10:31.299Z,13.73
2018-01-27T00:12:59.061Z,12.30
2018-01-27T00:15:26.738Z,13.27
2018-01-27T00:17:54.448Z,13.50
2018-01-27T00:20:22.149Z,12.90
2018-01-27T00:22:52.768Z,12.03
2018-01-27T00:25:20.446Z,12.37
2018-01-27T00:27:48.152Z,13.43
2018-01-27T00:30:15.834Z,12.83
2018-01-27T00:32:43.557Z,13.20
2018-01-27T00:35:11.978Z,11.80
2018-01-27T00:37:39.677Z,13.17
2018-01-27T00:40:07.346Z,11.80
2018-01-27T00:42:35.817Z,13.23
2018-01-27T00:45:03.560Z,13.00
2018-01-27T00:47:31.263Z,14.07
2018-01-27T00:49:58.939Z,13.10
2018-01-27T00:52:26.662Z,13.33
2018-01-27T00:54:55.090Z,13.50
2018-01-27T00:57:22.801Z,12.43
2018-01-27T00:59:51.239Z,12.80
2018-01-27T01:02:18.975Z,12.43
2018-01-27T01:04:46.640Z,12.13
2018-01-27T01:07:14.322Z,12.03
2018-01-27T01:09:42.015Z,13.60
2018-01-27T01:12:10.456Z,12.03
2018-01-27T01:14:38.150Z,12.40
2018-01-27T01:17:05.807Z,12.50
2018-01-27T01:19:33.514Z,13.03
2018-01-27T01:22:01.159Z,13.07
2018-01-27T01:24:28.851Z,10.90
2018-01-27T01:26:56.502Z,10.80
2018-01-27T01:29:24.193Z,11.67
2018-01-27T01:31:51.851Z,12.67
2018-01-27T01:34:19.538Z,13.70
2018-01-27T01:36:47.970Z,12.63
2018-01-27T01:39:15.677Z,11.77
2018-01-27T01:41:44.093Z,12.90
2018-01-27T01:44:27.455Z,12.10
2018-01-27T01:46:55.108Z,11.50
2018-01-27T01:49:24.602Z,12.30
2018-01-27T01:51:52.286Z,11.70
2018-01-27T01:54:20.755Z,11.67
2018-01-27T01:56:48.410Z,11.47
2018-01-27T01:59:16.114Z,11.13
2018-01-27T02:01:43.761Z,12.30
2018-01-27T02:04:12.222Z,11.67
2018-01-27T02:06:39.882Z,13.07
2018-01-27T02:09:07.590Z,12.30
2018-01-27T02:11:35.250Z,13.47
2018-01-27T02:14:02.982Z,12.60
2018-01-27T02:16:31.649Z,12.63
2018-01-27T02:19:00.125Z,11.40
2018-01-27T02:21:28.583Z,12.37
2018-01-27T02:23:56.282Z,11.40
2018-01-27T02:26:24.710Z,10.23
2018-01-27T02:28:52.417Z,11.43
2018-01-27T02:31:20.841Z,10.70
2018-01-27T02:33:49.356Z,11.33
2018-01-27T02:36:17.798Z,11.80
2018-01-27T02:38:45.507Z,10.90
2018-01-27T02:41:13.976Z,10.23
2018-01-27T02:43:42.451Z,11.27
2018-01-27T02:46:10.879Z,11.97
2018-01-27T02:48:38.618Z,11.53
2018-01-27T02:51:07.058Z,12.10
2018-01-27T02:53:34.786Z,10.83
2018-01-27T02:56:02.528Z,12.40
2018-01-27T02:58:30.354Z,11.13
2018-01-27T03:00:58.870Z,11.57
2018-01-27T03:03:27.999Z,12.13
2018-01-27T03:05:55.675Z,12.40
2018-01-27T03:08:23.416Z,10.87
2018-01-27T03:10:51.837Z,11.93
2018-01-27T03:13:20.310Z,11.27
2018-01-27T03:15:48.742Z,10.60
2018-01-27T03:18:16.450Z,11.73
2018-01-27T03:20:44.876Z,12.00
2018-01-27T03:23:12.614Z,11.07
2018-01-27T03:25:40.282Z,12.43
2018-01-27T03:28:08.046Z,13.40
2018-01-27T03:30:35.703Z,11.87
2018-01-27T03:33:03.422Z,15.40
2018-01-27T03:35:31.922Z,11.93
2018-01-27T03:37:59.655Z,11.83
2018-01-27T03:40:28.149Z,13.60
2018-01-27T03:42:56.994Z,12.47
2018-01-27T03:45:24.694Z,14.17
2018-01-27T03:47:53.110Z,12.10
2018-01-27T03:50:20.818Z,13.77
2018-01-27T03:52:49.407Z,12.87
2018-01-27T03:55:17.875Z,12.73
2018-01-27T03:57:46.352Z,12.73
2018-01-27T04:00:14.047Z,11.43
2018-01-27T04:02:41.703Z,12.63
2018-01-27T04:05:09.396Z,12.93
2018-01-27T04:07:37.047Z,10.73
2018-01-27T04:10:04.770Z,11.93
2018-01-27T04:12:33.205Z,11.40
2018-01-27T04:15:00.910Z,11.40
2018-01-27T04:17:28.612Z,11.53
2018-01-27T04:19:56.314Z,10.93
2018-01-27T04:22:24.734Z,10.87
2018-01-27T04:24:52.455Z,10.67
2018-01-27T04:27:20.878Z,9.90
2018-01-27T04:29:48.624Z,10.70
2018-01-27T04:32:16.287Z,9.10
2018-01-27T04:34:44.003Z,10.07
2018-01-27T04:37:12.441Z,8.97
2018-01-27T04:39:40.138Z,9.47
2018-01-27T04:42:07.789Z,9.60
2018-01-27T04:44:35.502Z,10.27
2018-01-27T04:47:03.162Z,10.60
2018-01-27T04:49:30.879Z,10.97
2018-01-27T04:51:58.554Z,10.53
2018-01-27T04:54:27.044Z,9.97
2018-01-27T04:56:54.710Z,11.57
2018-01-27T04:59:22.442Z,10.00
2018-01-27T05:01:50.868Z,11.53
2018-01-27T05:04:18.567Z,10.43
2018-01-27T05:06:46.227Z,10.40
2018-01-27T05:09:13.942Z,11.30
2018-01-27T05:11:41.593Z,9.93
2018-01-27T05:14:09.298Z,11.40
2018-01-27T05:16:36.961Z,10.07
2018-01-27T05:19:05.126Z,9.30
2018-01-27T05:21:33.690Z,9.80
2018-01-27T05:24:01.386Z,9.23
2018-01-27T05:26:29.923Z,9.17
2018-01-27T05:28:57.634Z,10.40
2018-01-27T05:31:26.050Z,8.33
2018-01-27T05:33:53.759Z,10.13
2018-01-27T05:36:21.415Z,8.30
2018-01-27T05:38:49.134Z,9.43
2018-01-27T05:41:16.790Z,9.30
2018-01-27T05:43:44.498Z,10.13
2018-01-27T05:46:12.153Z,9.80
2018-01-27T05:48:39.870Z,8.87
2018-01-27T05:51:07.542Z,9.43
2018-01-27T05:53:35.309Z,9.53
2018-01-27T05:56:02.974Z,9.80
2018-01-27T05:58:30.725Z,10.10
2018-01-27T06:00:58.387Z,9.73
2018-01-27T06:03:26.048Z,9.87
2018-01-27T06:05:53.746Z,10.13
2018-01-27T06:08:22.213Z,10.27
2018-01-27T06:10:49.917Z,10.10
2018-01-27T06:13:17.627Z,10.03
2018-01-27T06:15:45.362Z,12.00
2018-01-27T06:18:13.077Z,10.10
2018-01-27T06:20:40.830Z,10.37
2018-01-27T06:23:09.278Z,9.40
2018-01-27T06:25:36.978Z,11.87
2018-01-27T06:28:04.646Z,10.10
2018-01-27T06:30:32.381Z,10.40
2018-01-27T06:33:00.819Z,9.80
2018-01-27T06:35:28.526Z,11.40
2018-01-27T06:37:56.952Z,9.80
2018-01-27T06:40:24.645Z,10.40
2018-01-27T06:42:52.321Z,10.60
2018-01-27T06:45:20.802Z,9.93
2018-01-27T06:47:49.488Z,10.30
2018-01-27T06:50:17.956Z,10.50
2018-01-27T06:52:46.387Z,9.37
2018-01-27T06:55:14.086Z,10.80
2018-01-27T06:57:41.757Z,10.60
2018-01-27T07:00:10.230Z,10.53
2018-01-27T07:02:38.666Z,12.73
2018-01-27T07:05:06.382Z,11.70
2018-01-27T07:07:34.815Z,10.90
2018-01-27T07:10:02.529Z,11.77
2018-01-27T07:12:30.195Z,10.30
2018-01-27T07:14:57.904Z,9.87
2018-01-27T07:17:25.562Z,8.70
2018-01-27T07:19:53.282Z,8.07
2018-01-27T07:22:20.942Z,9.20
2018-01-27T07:24:48.655Z,8.33
2018-01-27T07:27:16.324Z,9.17
2018-01-27T07:29:44.830Z,8.87
2018-01-27T07:32:12.500Z,11.90
2018-01-27T07:34:40.203Z,11.40
2018-01-27T07:37:07.858Z,10.70
2018-01-27T07:39:35.579Z,9.40
2018-01-27T07:42:03.244Z,8.97
2018-01-27T07:44:30.956Z,9.43
2018-01-27T07:46:59.431Z,11.00
2018-01-27T07:49:27.136Z,10.90
2018-01-27T07:51:54.793Z,10.37
2018-01-27T07:54:22.534Z,12.57
2018-01-27T07:56:50.197Z,11.37
2018-01-27T07:59:17.922Z,11.07
2018-01-27T08:01:45.586Z,11.13
2018-01-27T08:04:13.288Z,12.63
2018-01-27T08:06:40.962Z,11.50
2018-01-27T08:09:08.678Z,11.47
2018-01-27T08:11:37.096Z,12.00
2018-01-27T08:14:04.811Z,13.03
2018-01-27T08:16:33.237Z,11.50
2018-01-27T08:19:00.931Z,12.53
2018-01-27T08:21:28.588Z,12.47
2018-01-27T08:23:56.247Z,12.20
2018-01-27T08:26:23.947Z,11.50
2018-01-27T08:28:51.602Z,11.20
2018-01-27T08:31:20.059Z,12.20
2018-01-27T08:33:47.727Z,11.50
2018-01-27T08:36:16.224Z,10.97
2018-01-27T08:38:43.905Z,12.40
2018-01-27T08:41:11.626Z,12.20
2018-01-27T08:43:40.244Z,11.00
2018-01-27T08:46:07.990Z,11.50
2018-01-27T08:48:35.659Z,11.87
2018-01-27T08:51:03.369Z,11.60
2018-01-27T08:53:31.027Z,11.70
2018-01-27T08:55:58.772Z,12.57
2018-01-27T08:58:26.776Z,11.97
2018-01-27T09:00:55.241Z,11.60
2018-01-27T09:03:22.914Z,12.43
2018-01-27T09:05:51.382Z,10.37
2018-01-27T09:08:19.049Z,12.10
2018-01-27T09:10:47.558Z,12.27
2018-01-27T09:13:15.220Z,12.67
2018-01-27T09:15:42.934Z,23.50
2018-01-27T09:18:10.600Z,11.80
2018-01-27T09:20:39.074Z,11.43
2018-01-27T09:23:06.739Z,12.87
2018-01-27T09:25:35.210Z,13.77
2018-01-27T09:28:02.875Z,12.17
2018-01-27T09:30:30.583Z,14.23
2018-01-27T09:32:59.002Z,15.33
2018-01-27T09:35:26.714Z,13.60
2018-01-27T09:37:54.370Z,18.80
2018-01-27T09:40:22.082Z,11.90
2018-01-27T09:42:49.758Z,12.33
2018-01-27T09:45:18.345Z,11.53
2018-01-27T09:47:46.819Z,12.03
2018-01-27T09:50:15.291Z,12.17
2018-01-27T09:52:43.729Z,10.87
2018-01-27T09:55:11.439Z,10.03
2018-01-27T09:57:39.867Z,10.23
2018-01-27T10:00:07.611Z,23.67
2018-01-27T10:02:35.284Z,40.60
2018-01-27T10:05:02.997Z,16.27
2018-01-27T10:07:31.425Z,20.70
2018-01-27T10:09:59.154Z,26.70
2018-01-27T10:12:26.842Z,38.57
2018-01-27T10:14:54.543Z,13.20
2018-01-27T10:17:22.962Z,15.97
2018-01-27T10:19:50.658Z,11.30
2018-01-27T10:22:18.319Z,27.43
2018-01-27T10:24:46.014Z,14.20
2018-01-27T10:27:14.430Z,80.20
2018-01-27T10:29:42.128Z,13.87
2018-01-27T10:32:09.791Z,11.10
2018-01-27T10:34:37.485Z,9.40
2018-01-27T10:37:05.180Z,11.17
2018-01-27T10:39:32.879Z,12.10
2018-01-27T10:42:01.300Z,12.17
2018-01-27T10:44:29.052Z,12.23
2018-01-27T10:46:56.719Z,11.40
2018-01-27T10:49:24.447Z,33.40
2018-01-27T10:51:52.976Z,31.93
2018-01-27T10:54:20.625Z,12.50
2018-01-27T10:56:48.340Z,11.70
2018-01-27T10:59:16.777Z,11.13
2018-01-27T11:01:44.479Z,11.80
2018-01-27T11:04:12.909Z,12.00
2018-01-27T11:06:40.619Z,11.37
2018-01-27T11:09:09.035Z,13.73
2018-01-27T11:11:36.727Z,9.57
2018-01-27T11:14:04.388Z,11.30
2018-01-27T11:16:37.695Z,10.80
2018-01-27T11:19:06.139Z,12.00
2018-01-27T11:21:33.938Z,11.70
2018-01-27T11:24:02.358Z,10.60
2018-01-27T11:26:30.054Z,11.90
2018-01-27T11:28:57.723Z,10.53
2018-01-27T11:31:25.421Z,12.70
2018-01-27T11:33:53.085Z,11.70
2018-01-27T11:36:20.775Z,10.90
2018-01-27T11:38:48.427Z,11.30
2018-01-27T11:41:16.118Z,11.30
2018-01-27T11:43:43.783Z,12.73
2018-01-27T11:46:11.495Z,12.77
2018-01-27T11:48:39.400Z,11.70
2018-01-27T11:51:07.099Z,12.27
2018-01-27T11:53:34.803Z,11.67
2018-01-27T11:56:02.543Z,12.27
2018-01-27T11:58:30.199Z,11.60
2018-01-27T12:00:57.850Z,12.80
2018-01-27T12:03:25.586Z,11.83
2018-01-27T12:05:54.010Z,13.83
2018-01-27T12:08:21.706Z,14.50
2018-01-27T12:10:49.372Z,13.73
2018-01-27T12:13:17.862Z,12.00
2018-01-27T12:15:46.302Z,13.00
2018-01-27T12:18:14.010Z,15.10
2018-01-27T12:20:41.674Z,12.77
2018-01-27T12:23:09.395Z,14.00
2018-01-27T12:25:37.062Z,15.70
2018-01-27T12:28:04.799Z,13.67
2018-01-27T12:30:32.463Z,13.17
2018-01-27T12:33:00.179Z,16.10
2018-01-27T12:35:27.846Z,16.40
2018-01-27T12:37:57.720Z,17.40
2018-01-27T12:40:26.361Z,16.47
2018-01-27T12:42:54.063Z,16.37
2018-01-27T12:45:22.506Z,15.83
2018-01-27T12:47:50.212Z,15.37
2018-01-27T12:50:18.658Z,18.40
2018-01-27T12:52:46.399Z,16.47
2018-01-27T12:55:14.071Z,16.20
2018-01-27T12:57:41.796Z,17.93
2018-01-27T13:00:09.463Z,17.40
2018-01-27T13:02:37.126Z,16.77
2018-01-27T13:05:04.829Z,18.20
2018-01-27T13:07:32.498Z,16.87
2018-01-27T13:10:00.966Z,18.40
2018-01-27T13:12:28.626Z,17.77
2018-01-27T13:14:56.334Z,17.83
2018-01-27T13:17:24.025Z,17.90
2018-01-27T13:19:51.729Z,19.50
2018-01-27T13:22:19.386Z,17.20
2018-01-27T13:24:47.095Z,19.30
2018-01-27T13:27:14.771Z,20.93
2018-01-27T13:29:42.481Z,20.43
2018-01-27T13:32:10.153Z,17.43
2018-01-27T13:34:37.862Z,17.40
2018-01-27T13:37:05.521Z,18.10
2018-01-27T13:39:33.248Z,19.50
2018-01-27T13:42:00.943Z,17.67
2018-01-27T13:44:28.758Z,18.30
2018-01-27T13:46:56.472Z,18.50
2018-01-27T13:49:24.946Z,19.97
2018-01-27T13:51:53.409Z,19.53
2018-01-27T13:54:22.317Z,19.27
2018-01-27T13:56:51.070Z,16.93
2018-01-27T13:59:18.794Z,18.00
2018-01-27T14:01:46.462Z,18.50
2018-01-27T14:04:14.161Z,20.50
2018-01-27T14:06:41.883Z,20.83
2018-01-27T14:09:09.552Z,20.50
2018-01-27T14:11:37.259Z,22.47
2018-01-27T14:14:05.690Z,19.80
2018-01-27T14:16:33.394Z,17.97
2018-01-27T14:19:01.835Z,19.40
2018-01-27T14:21:29.550Z,19.80
2018-01-27T14:23:58.013Z,18.50
2018-01-27T14:26:26.494Z,17.13
2018-01-27T14:28:54.921Z,20.00
2018-01-27T14:31:22.621Z,16.93
2018-01-27T14:33:50.287Z,17.10
2018-01-27T14:36:18.838Z,17.87
2018-01-27T14:38:46.518Z,18.53
2018-01-27T14:41:14.224Z,19.40
2018-01-27T14:43:41.898Z,16.37
2018-01-27T14:46:09.632Z,18.97
2018-01-27T14:48:37.304Z,16.80
2018-01-27T14:51:05.090Z,18.93
2018-01-27T14:53:32.808Z,17.87
2018-01-27T14:56:00.624Z,34.67
2018-01-27T14:58:28.338Z,22.47
2018-01-27T15:00:56.088Z,19.13
2018-01-27T15:03:24.600Z,18.90
2018-01-27T15:05:52.290Z,19.67
2018-01-27T15:08:20.060Z,18.40
2018-01-27T15:10:47.814Z,18.70
2018-01-27T15:13:15.574Z,21.30
2018-01-27T15:15:43.438Z,20.60
2018-01-27T15:18:11.150Z,19.77
2018-01-27T15:20:38.945Z,19.73
2018-01-27T15:23:06.686Z,17.60
2018-01-27T15:25:34.364Z,16.43
2018-01-27T15:28:02.143Z,17.40
2018-01-27T15:30:29.837Z,17.90
2018-01-27T15:32:58.342Z,16.93
2018-01-27T15:35:26.021Z,17.50
2018-01-27T15:37:53.923Z,18.63
2018-01-27T15:40:21.587Z,15.90
2018-01-27T15:42:50.036Z,17.10
2018-01-27T15:45:17.774Z,15.13
2018-01-27T15:47:45.438Z,13.80
2018-01-27T15:50:13.183Z,14.13
2018-01-27T15:52:40.920Z,13.90
2018-01-27T15:55:09.690Z,13.80
2018-01-27T15:57:37.425Z,13.87
2018-01-27T16:00:05.116Z,15.10
2018-01-27T16:02:33.642Z,14.10
2018-01-27T16:05:01.298Z,17.70
2018-01-27T16:07:29.030Z,18.10
2018-01-27T16:09:56.705Z,16.00
2018-01-27T16:12:24.498Z,15.93
2018-01-27T16:14:52.162Z,18.30
2018-01-27T16:17:19.992Z,19.10
2018-01-27T16:19:47.658Z,17.73
2018-01-27T16:22:15.414Z,17.67
2018-01-27T16:24:43.086Z,15.97
2018-01-27T16:27:11.083Z,18.50
2018-01-27T16:29:38.742Z,17.43
2018-01-27T16:32:06.408Z,17.10
2018-01-27T16:34:34.156Z,15.90
2018-01-27T16:37:01.870Z,15.57
2018-01-27T16:39:30.194Z,17.50
2018-01-27T16:42:00.161Z,16.77
2018-01-27T16:44:27.954Z,15.13
2018-01-27T16:46:55.730Z,15.03
2018-01-27T16:49:23.515Z,15.13
2018-01-27T16:51:51.957Z,15.33
2018-01-27T16:54:19.790Z,16.70
2018-01-27T16:56:47.741Z,18.60
2018-01-27T16:59:15.666Z,20.13
2018-01-27T17:01:43.569Z,20.93
2018-01-27T17:04:11.419Z,18.77
2018-01-27T17:06:40.179Z,19.30
2018-01-27T17:09:07.850Z,16.50
2018-01-27T17:11:35.773Z,17.10
2018-01-27T17:14:03.561Z,16.13
2018-01-27T17:16:31.308Z,15.53
2018-01-27T17:18:59.044Z,17.50
2018-01-27T17:21:26.897Z,18.37
2018-01-27T17:23:54.784Z,16.77
2018-01-27T17:26:22.518Z,18.20
2018-01-27T17:28:50.325Z,20.30
2018-01-27T17:31:17.982Z,20.57
2018-01-27T17:33:45.868Z,19.27
2018-01-27T17:36:13.918Z,21.17
2018-01-27T17:38:41.687Z,21.03
2018-01-27T17:41:09.531Z,19.07
2018-01-27T17:43:37.196Z,21.07
2018-01-27T17:46:05.047Z,22.40
2018-01-27T17:48:32.734Z,20.80
2018-01-27T17:51:00.475Z,22.70
2018-01-27T17:53:28.242Z,23.07
2018-01-27T17:55:55.974Z,23.37
2018-01-27T17:58:23.758Z,22.27
2018-01-27T18:00:51.542Z,20.47
2018-01-27T18:03:19.331Z,18.40
2018-01-27T18:05:47.757Z,18.10
2018-01-27T18:08:15.507Z,20.83
2018-01-27T18:10:43.211Z,18.40
2018-01-27T18:13:11.067Z,18.33
2018-01-27T18:15:38.778Z,18.93
2018-01-27T18:18:06.495Z,18.07
2018-01-27T18:20:34.243Z,14.43
2018-01-27T18:23:02.778Z,14.70
2018-01-27T18:25:30.530Z,13.40
2018-01-27T18:27:59.284Z,13.83
2018-01-27T18:30:26.974Z,13.27
2018-01-27T18:32:55.414Z,12.37
2018-01-27T18:35:24.347Z,12.60
2018-01-27T18:37:52.132Z,12.27
2018-01-27T18:40:19.802Z,13.30
2018-01-27T18:42:47.542Z,14.23
2018-01-27T18:45:15.197Z,14.63
2018-01-27T18:47:43.120Z,13.03
2018-01-27T18:50:10.855Z,16.07
2018-01-27T18:52:38.538Z,14.43
2018-01-27T18:55:06.313Z,15.70
2018-01-27T18:57:34.750Z,15.40
2018-01-27T19:00:02.613Z,15.13
2018-01-27T19:02:30.338Z,13.80
2018-01-27T19:04:58.074Z,13.93
2018-01-27T19:07:26.512Z,15.97
2018-01-27T19:09:54.411Z,15.90
2018-01-27T19:12:22.098Z,14.70
2018-01-27T19:14:49.771Z,15.90
2018-01-27T19:17:17.597Z,17.27
2018-01-27T19:19:45.257Z,16.60
2018-01-27T19:22:13.772Z,18.40
2018-01-27T19:24:41.581Z,17.47
2018-01-27T19:27:09.293Z,16.93
2018-01-27T19:29:36.971Z,19.50
2018-01-27T19:32:04.741Z,17.07
2018-01-27T19:34:32.417Z,19.33
2018-01-27T19:37:00.154Z,18.07
2018-01-27T19:39:27.848Z,17.87
2018-01-27T19:41:55.597Z,20.33
2018-01-27T19:44:23.318Z,19.87
2018-01-27T19:46:51.142Z,20.50
2018-01-27T19:49:19.612Z,22.07
2018-01-27T19:51:47.398Z,22.37
2018-01-27T19:54:15.239Z,20.40
2018-01-27T19:56:43.725Z,21.70
2018-01-27T19:59:12.334Z,20.87
2018-01-27T20:01:40.016Z,21.30
2018-01-27T20:04:07.783Z,23.10
2018-01-27T20:06:35.523Z,22.70
2018-01-27T20:09:03.301Z,22.90
2018-01-27T20:11:31.060Z,27.17
2018-01-27T20:13:58.724Z,26.47
2018-01-27T20:16:26.479Z,31.80
2018-01-27T20:18:54.231Z,28.57
2018-01-27T20:21:21.905Z,26.57
2018-01-27T20:23:49.662Z,27.90
2018-01-27T20:26:17.350Z,26.27
2018-01-27T20:28:45.217Z,26.53
2018-01-27T20:31:12.891Z,26.50
2018-01-27T20:33:40.558Z,25.07
2018-01-27T20:36:09.082Z,26.57
2018-01-27T20:38:36.761Z,26.20
2018-01-27T20:41:04.498Z,28.20
2018-01-27T20:43:32.239Z,28.70
2018-01-27T20:46:00.016Z,25.33
2018-01-27T20:48:27.828Z,26.40
2018-01-27T20:50:55.538Z,24.40
2018-01-27T20:53:23.983Z,24.87
2018-01-27T20:55:52.453Z,26.70
2018-01-27T20:58:20.228Z,25.60
2018-01-27T21:00:48.699Z,28.20
2018-01-27T21:03:17.364Z,35.07
2018-01-27T21:05:45.038Z,31.47
2018-01-27T21:08:13.472Z,26.80
2018-01-27T21:10:41.214Z,28.27
2018-01-27T21:13:08.887Z,28.97
2018-01-27T21:15:36.627Z,29.87
2018-01-27T21:18:04.290Z,27.90
2018-01-27T21:20:32.047Z,28.10
2018-01-27T21:22:59.717Z,29.80
2018-01-27T21:25:27.629Z,32.63
2018-01-27T21:27:55.290Z,29.10
2018-01-27T21:30:22.962Z,31.00
2018-01-27T21:32:51.467Z,29.00
2018-01-27T21:35:19.403Z,29.90
2018-01-27T21:37:47.138Z,28.07
2018-01-27T21:40:14.819Z,29.10
2018-01-27T21:42:42.766Z,27.90
2018-01-27T21:45:10.438Z,30.23
2018-01-27T21:47:38.112Z,27.90
2018-01-27T21:50:06.630Z,27.93
2018-01-27T21:52:34.374Z,30.90
2018-01-27T21:55:02.091Z,26.27
2018-01-27T21:57:29.834Z,26.70
2018-01-27T21:59:57.640Z,25.97
2018-01-27T22:02:26.073Z,25.90
2018-01-27T22:04:53.901Z,22.93
2018-01-27T22:07:21.582Z,22.67
2018-01-27T22:09:49.529Z,24.00
2018-01-27T22:12:17.213Z,23.87
2018-01-27T22:14:44.946Z,24.27
2018-01-27T22:17:12.606Z,20.40
2018-01-27T22:19:40.347Z,23.27
2018-01-27T22:22:08.779Z,20.87
2018-01-27T22:24:36.936Z,22.93
2018-01-27T22:27:04.604Z,22.90
2018-01-27T22:29:32.354Z,22.67
2018-01-27T22:32:00.164Z,21.47
2018-01-27T22:34:27.912Z,21.17
2018-01-27T22:36:55.832Z,23.17
2018-01-27T22:39:24.442Z,22.30
2018-01-27T22:41:52.103Z,19.77
2018-01-27T22:44:19.847Z,20.53
2018-01-27T22:46:48.758Z,20.47
2018-01-27T22:49:16.667Z,19.07
2018-01-27T22:51:45.126Z,20.30
2018-01-27T22:54:12.858Z,20.87
2018-01-27T22:56:40.539Z,18.40
2018-01-27T22:59:08.283Z,19.00
2018-01-27T23:01:35.963Z,18.67
2018-01-27T23:04:03.703Z,17.80
2018-01-27T23:06:31.375Z,18.30
2018-01-27T23:08:59.115Z,19.67
2018-01-27T23:11:26.859Z,21.33
2018-01-27T23:13:54.689Z,19.73
2018-01-27T23:16:23.120Z,19.43
2018-01-27T23:18:50.814Z,18.60
2018-01-27T23:21:19.323Z,19.80
2018-01-27T23:23:46.986Z,20.90
2018-01-27T23:26:14.722Z,19.93
2018-01-27T23:28:43.159Z,22.00
2018-01-27T23:31:10.898Z,21.80
2018-01-27T23:33:38.703Z,19.97
2018-01-27T23:36:06.438Z,20.57
2018-01-27T23:38:34.918Z,20.70
2018-01-27T23:41:02.661Z,21.20
2018-01-27T23:43:30.332Z,20.77
2018-01-27T23:45:58.075Z,21.23
2018-01-27T23:48:25.826Z,19.40
2018-01-27T23:50:53.574Z,22.50
2018-01-27T23:53:21.312Z,21.10
2018-01-27T23:55:49.742Z,20.20
2018-01-27T23:58:17.474Z,19.07
